createdAt,value
2018-01-01T00:00:16.975Z,10.36
2018-01-01T00:01:16.926Z,10.34
2018-01-01T00:02:16.892Z,10.33
2018-01-01T00:03:17.038Z,10.31
2018-01-01T00:04:17.382Z,10.3
2018-01-01T00:05:17.130Z,10.3
2018-01-01T00:06:17.353Z,10.29
2018-01-01T00:07:18.662Z,10.28
2018-01-01T00:08:18.966Z,10.26
2018-01-01T00:09:18.845Z,10.25
2018-01-01T00:10:17.267Z,10.23
2018-01-01T00:11:19.046Z,10.22
2018-01-01T00:12:17.298Z,10.21
2018-01-01T00:13:17.186Z,10.19
2018-01-01T00:14:17.345Z,10.18
2018-01-01T00:15:18.597Z,10.17
2018-01-01T00:16:16.957Z,10.17
2018-01-01T00:17:19.100Z,10.15
2018-01-01T00:18:17.250Z,10.14
2018-01-01T00:19:17.343Z,10.14
2018-01-01T00:20:18.578Z,10.12
2018-01-01T00:21:18.684Z,10.12
2018-01-01T00:22:18.754Z,10.1
2018-01-01T00:23:18.937Z,10.1
2018-01-01T00:24:17.266Z,10.08
2018-01-01T00:25:17.187Z,10.07
2018-01-01T00:26:17.286Z,10.06
2018-01-01T00:27:17.284Z,10.05
2018-01-01T00:28:17.270Z,10.05
2018-01-01T00:29:18.528Z,10.04
2018-01-01T00:30:19.017Z,10.04
2018-01-01T00:31:18.843Z,10.03
2018-01-01T00:32:18.866Z,10.02
2018-01-01T00:33:18.872Z,10
2018-01-01T00:34:18.799Z,10.01
2018-01-01T00:35:18.728Z,10
2018-01-01T00:36:16.981Z,10
2018-01-01T00:37:17.333Z,9.98
2018-01-01T00:38:18.887Z,9.98
2018-01-01T00:39:16.986Z,9.97
2018-01-01T00:40:16.963Z,9.97
2018-01-01T00:41:17.204Z,9.96
2018-01-01T00:42:18.611Z,9.95
2018-01-01T00:43:18.844Z,9.94
2018-01-01T00:44:18.772Z,9.94
2018-01-01T00:45:16.977Z,9.93
2018-01-01T00:46:18.903Z,9.93
2018-01-01T00:47:16.935Z,9.93
2018-01-01T00:48:18.610Z,9.93
2018-01-01T00:49:17.422Z,9.92
2018-01-01T00:50:18.858Z,9.91
2018-01-01T00:51:18.974Z,9.91
2018-01-01T00:52:18.940Z,9.9
2018-01-01T00:53:17.074Z,9.9
2018-01-01T00:54:17.403Z,9.89
2018-01-01T00:55:18.673Z,9.88
2018-01-01T00:56:17.109Z,9.88
2018-01-01T00:57:17.049Z,9.87
2018-01-01T00:58:18.729Z,9.86
2018-01-01T00:59:18.702Z,9.85
2018-01-01T01:00:18.698Z,9.83
2018-01-01T01:01:18.645Z,9.81
2018-01-01T01:02:16.798Z,9.8
2018-01-01T01:03:16.903Z,9.79
2018-01-01T01:04:17.117Z,9.79
2018-01-01T01:05:17.219Z,9.79
2018-01-01T01:06:17.239Z,9.78
2018-01-01T01:07:18.549Z,9.79
2018-01-01T01:08:18.590Z,9.78
2018-01-01T01:09:18.815Z,9.78
2018-01-01T01:10:17.033Z,9.77
2018-01-01T01:11:17.035Z,9.75
2018-01-01T01:12:17.126Z,9.74
2018-01-01T01:13:17.172Z,9.73
2018-01-01T01:14:17.206Z,9.71
2018-01-01T01:15:17.453Z,9.7
2018-01-01T01:16:17.166Z,9.69
2018-01-01T01:17:17.343Z,9.68
2018-01-01T01:18:17.390Z,9.66
2018-01-01T01:19:17.419Z,9.66
2018-01-01T01:20:17.265Z,9.64
2018-01-01T01:21:18.556Z,9.63
2018-01-01T01:22:18.787Z,9.62
2018-01-01T01:23:19.142Z,9.61
2018-01-01T01:24:17.170Z,9.63
2018-01-01T01:25:16.754Z,9.61
2018-01-01T01:26:17.014Z,9.6
2018-01-01T01:27:18.580Z,9.59
2018-01-01T01:28:18.517Z,9.58
2018-01-01T01:29:17.408Z,9.57
2018-01-01T01:30:18.585Z,9.57
2018-01-01T01:31:17.316Z,9.56
2018-01-01T01:32:18.751Z,9.55
2018-01-01T01:33:18.589Z,9.55
2018-01-01T01:34:16.983Z,9.55
2018-01-01T01:35:17.276Z,9.55
2018-01-01T01:36:17.408Z,9.53
2018-01-01T01:37:17.040Z,9.53
2018-01-01T01:38:17.272Z,9.52
2018-01-01T01:39:17.451Z,9.51
2018-01-01T01:40:17.231Z,9.5
2018-01-01T01:41:17.239Z,9.5
2018-01-01T01:42:17.459Z,9.47
2018-01-01T01:43:17.051Z,9.48
2018-01-01T01:44:17.218Z,9.47
2018-01-01T01:45:17.354Z,9.46
2018-01-01T01:46:18.577Z,9.45
2018-01-01T01:47:18.733Z,9.43
2018-01-01T01:48:18.331Z,9.42
2018-01-01T01:49:17.122Z,9.41
2018-01-01T01:50:18.927Z,9.41
2018-01-01T01:51:16.844Z,9.39
2018-01-01T01:52:18.668Z,9.38
2018-01-01T01:53:18.585Z,9.38
2018-01-01T01:54:17.426Z,9.37
2018-01-01T01:55:16.859Z,9.38
2018-01-01T01:56:16.990Z,9.37
2018-01-01T01:57:18.745Z,9.36
2018-01-01T01:58:18.902Z,9.33
2018-01-01T01:59:16.954Z,9.33
2018-01-01T02:00:17.059Z,9.32
2018-01-01T02:01:17.347Z,9.31
2018-01-01T02:02:18.513Z,9.29
2018-01-01T02:03:18.546Z,9.29
2018-01-01T02:04:17.478Z,9.29
2018-01-01T02:05:17.088Z,9.28
2018-01-01T02:06:17.016Z,9.28
2018-01-01T02:07:16.969Z,9.27
2018-01-01T02:08:16.989Z,9.27
2018-01-01T02:09:17.002Z,9.27
2018-01-01T02:10:16.730Z,9.26
2018-01-01T02:11:16.830Z,9.25
2018-01-01T02:12:16.421Z,9.24
2018-01-01T02:13:16.497Z,9.24
2018-01-01T02:14:16.769Z,9.22
2018-01-01T02:15:17.234Z,9.21
2018-01-01T02:16:16.533Z,9.22
2018-01-01T02:17:17.155Z,9.21
2018-01-01T02:18:16.698Z,9.2
2018-01-01T02:19:16.787Z,9.18
2018-01-01T02:20:17.311Z,9.18
2018-01-01T02:21:16.730Z,9.17
2018-01-01T02:22:16.739Z,9.15
2018-01-01T02:23:17.010Z,9.13
2018-01-01T02:24:17.055Z,9.13
2018-01-01T02:25:17.248Z,9.12
2018-01-01T02:26:17.341Z,9.11
2018-01-01T02:27:17.335Z,9.12
2018-01-01T02:28:17.266Z,9.12
2018-01-01T02:29:17.359Z,9.13
2018-01-01T02:30:16.645Z,9.14
2018-01-01T02:31:16.782Z,9.14
2018-01-01T02:32:16.864Z,9.13
2018-01-01T02:33:16.913Z,9.1
2018-01-01T02:34:17.119Z,9.08
2018-01-01T02:35:17.096Z,9.05
2018-01-01T02:36:16.874Z,9.03
2018-01-01T02:37:16.422Z,9.02
2018-01-01T02:38:16.652Z,9.03
2018-01-01T02:39:16.186Z,9.03
2018-01-01T02:40:16.976Z,9.05
2018-01-01T02:41:16.279Z,9.05
2018-01-01T02:42:16.876Z,9.06
2018-01-01T02:43:16.964Z,9.05
2018-01-01T02:44:16.329Z,9.07
2018-01-01T02:45:16.579Z,9.08
2018-01-01T02:46:16.316Z,9.08
2018-01-01T02:47:16.498Z,9.07
2018-01-01T02:48:16.370Z,9.06
2018-01-01T02:49:16.607Z,9.05
2018-01-01T02:50:16.955Z,9.04
2018-01-01T02:51:16.304Z,9.04
2018-01-01T02:52:16.428Z,9.01
2018-01-01T02:53:16.587Z,9.01
2018-01-01T02:54:16.997Z,9
2018-01-01T02:55:16.237Z,9
2018-01-01T02:56:16.949Z,8.97
2018-01-01T02:57:16.116Z,8.96
2018-01-01T02:58:16.297Z,8.94
2018-01-01T02:59:16.132Z,8.94
2018-01-01T03:00:16.169Z,8.93
2018-01-01T03:01:16.251Z,8.93
2018-01-01T03:02:16.680Z,8.94
2018-01-01T03:03:16.148Z,8.94
2018-01-01T03:04:16.384Z,8.94
2018-01-01T03:05:16.742Z,8.92
2018-01-01T03:06:16.711Z,8.92
2018-01-01T03:07:16.698Z,8.9
2018-01-01T03:08:16.835Z,8.88
2018-01-01T03:09:17.053Z,8.86
2018-01-01T03:10:17.197Z,8.85
2018-01-01T03:11:16.943Z,8.83
2018-01-01T03:12:17.077Z,8.81
2018-01-01T03:13:16.892Z,8.79
2018-01-01T03:14:17.065Z,8.77
2018-01-01T03:15:17.453Z,8.75
2018-01-01T03:16:17.346Z,8.74
2018-01-01T03:17:17.511Z,8.72
2018-01-01T03:18:18.784Z,8.71
2018-01-01T03:19:16.815Z,8.7
2018-01-01T03:20:17.137Z,8.68
2018-01-01T03:21:18.614Z,8.68
2018-01-01T03:22:17.480Z,8.67
2018-01-01T03:23:17.507Z,8.65
2018-01-01T03:24:17.358Z,8.63
2018-01-01T03:25:17.431Z,8.62
2018-01-01T03:26:18.629Z,8.59
2018-01-01T03:27:18.627Z,8.58
2018-01-01T03:28:18.674Z,8.56
2018-01-01T03:29:18.679Z,8.55
2018-01-01T03:30:18.419Z,8.53
2018-01-01T03:31:17.280Z,8.52
2018-01-01T03:32:17.241Z,8.49
2018-01-01T03:33:16.912Z,8.48
2018-01-01T03:34:18.709Z,8.49
2018-01-01T03:35:16.780Z,8.46
2018-01-01T03:36:16.935Z,8.48
2018-01-01T03:37:18.671Z,8.46
2018-01-01T03:38:18.554Z,8.47
2018-01-01T03:39:17.412Z,8.47
2018-01-01T03:40:17.539Z,8.47
2018-01-01T03:41:17.075Z,8.48
2018-01-01T03:42:17.213Z,8.48
2018-01-01T03:43:16.903Z,8.47
2018-01-01T03:44:17.062Z,8.48
2018-01-01T03:45:17.245Z,8.48
2018-01-01T03:46:18.756Z,8.47
2018-01-01T03:47:17.533Z,8.46
2018-01-01T03:48:17.517Z,8.46
2018-01-01T03:49:17.442Z,8.44
2018-01-01T03:50:18.906Z,8.43
2018-01-01T03:51:18.777Z,8.41
2018-01-01T03:52:17.481Z,8.41
2018-01-01T03:53:16.962Z,8.4
2018-01-01T03:54:17.034Z,8.39
2018-01-01T03:55:17.233Z,8.4
2018-01-01T03:56:17.389Z,8.4
2018-01-01T03:57:17.312Z,8.4
2018-01-01T03:58:17.259Z,8.4
2018-01-01T03:59:17.336Z,8.43
2018-01-01T04:00:17.393Z,8.46
2018-01-01T04:01:18.773Z,8.48
2018-01-01T04:02:18.597Z,8.52
2018-01-01T04:03:17.321Z,8.53
2018-01-01T04:04:17.197Z,8.53
2018-01-01T04:05:17.313Z,8.54
2018-01-01T04:06:17.309Z,8.55
2018-01-01T04:07:16.400Z,8.54
2018-01-01T04:08:16.614Z,8.54
2018-01-01T04:09:16.908Z,8.52
2018-01-01T04:10:16.676Z,8.51
2018-01-01T04:11:16.691Z,8.51
2018-01-01T04:12:17.255Z,8.5
2018-01-01T04:13:16.493Z,8.49
2018-01-01T04:14:16.638Z,8.48
2018-01-01T04:15:17.241Z,8.47
2018-01-01T04:16:17.210Z,8.46
2018-01-01T04:17:16.564Z,8.45
2018-01-01T04:18:17.052Z,8.44
2018-01-01T04:19:16.324Z,8.42
2018-01-01T04:20:16.714Z,8.4
2018-01-01T04:21:16.909Z,8.39
2018-01-01T04:22:16.730Z,8.4
2018-01-01T04:23:16.882Z,8.4
2018-01-01T04:24:16.757Z,8.41
2018-01-01T04:25:17.261Z,8.42
2018-01-01T04:26:16.561Z,8.41
2018-01-01T04:27:17.210Z,8.4
2018-01-01T04:28:16.700Z,8.39
2018-01-01T04:29:17.277Z,8.37
2018-01-01T04:30:17.154Z,8.37
2018-01-01T04:31:16.667Z,8.37
2018-01-01T04:32:17.023Z,8.36
2018-01-01T04:33:17.229Z,8.36
2018-01-01T04:34:17.248Z,8.36
2018-01-01T04:35:16.382Z,8.37
2018-01-01T04:36:16.802Z,8.38
2018-01-01T04:37:16.247Z,8.39
2018-01-01T04:38:17.288Z,8.39
2018-01-01T04:39:17.028Z,8.39
2018-01-01T04:40:17.064Z,8.39
2018-01-01T04:41:17.146Z,8.4
2018-01-01T04:42:16.593Z,8.39
2018-01-01T04:43:17.108Z,8.39
2018-01-01T04:44:16.336Z,8.39
2018-01-01T04:45:16.699Z,8.38
2018-01-01T04:46:17.209Z,8.37
2018-01-01T04:47:16.432Z,8.37
2018-01-01T04:48:16.681Z,8.34
2018-01-01T04:49:16.850Z,8.33
2018-01-01T04:50:16.955Z,8.31
2018-01-01T04:51:16.744Z,8.3
2018-01-01T04:52:16.931Z,8.29
2018-01-01T04:53:16.458Z,8.29
2018-01-01T04:54:16.780Z,8.29
2018-01-01T04:55:17.031Z,8.29
2018-01-01T04:56:17.128Z,8.28
2018-01-01T04:57:16.575Z,8.29
2018-01-01T04:58:16.742Z,8.27
2018-01-01T04:59:17.028Z,8.26
2018-01-01T05:00:17.165Z,8.25
2018-01-01T05:01:16.410Z,8.26
2018-01-01T05:02:16.528Z,8.24
2018-01-01T05:03:16.834Z,8.24
2018-01-01T05:04:16.929Z,8.22
2018-01-01T05:05:16.629Z,8.23
2018-01-01T05:06:16.848Z,8.22
2018-01-01T05:07:17.169Z,8.22
2018-01-01T05:08:16.529Z,8.22
2018-01-01T05:09:16.757Z,8.22
2018-01-01T05:10:16.485Z,8.22
2018-01-01T05:11:16.641Z,8.22
2018-01-01T05:12:16.192Z,8.22
2018-01-01T05:13:16.476Z,8.22
2018-01-01T05:14:16.366Z,8.23
2018-01-01T05:15:16.413Z,8.23
2018-01-01T05:16:16.949Z,8.25
2018-01-01T05:17:17.130Z,8.25
2018-01-01T05:18:16.496Z,8.25
2018-01-01T05:19:16.746Z,8.24
2018-01-01T05:20:17.006Z,8.24
2018-01-01T05:21:17.150Z,8.23
2018-01-01T05:22:16.499Z,8.22
2018-01-01T05:23:17.140Z,8.18
2018-01-01T05:24:16.391Z,8.15
2018-01-01T05:25:16.158Z,8.12
2018-01-01T05:26:16.400Z,8.07
2018-01-01T05:27:16.676Z,8.03
2018-01-01T05:28:16.354Z,8.01
2018-01-01T05:29:17.113Z,7.98
2018-01-01T05:30:17.137Z,7.96
2018-01-01T05:31:16.414Z,7.94
2018-01-01T05:32:16.488Z,7.91
2018-01-01T05:33:17.127Z,7.9
2018-01-01T05:34:16.450Z,7.87
2018-01-01T05:35:16.259Z,7.86
2018-01-01T05:36:16.459Z,7.83
2018-01-01T05:37:16.628Z,7.81
2018-01-01T05:38:16.998Z,7.78
2018-01-01T05:39:17.183Z,7.77
2018-01-01T05:40:17.531Z,7.75
2018-01-01T05:41:18.792Z,7.74
2018-01-01T05:42:17.112Z,7.74
2018-01-01T05:43:17.210Z,7.74
2018-01-01T05:44:18.895Z,7.75
2018-01-01T05:45:17.441Z,7.76
2018-01-01T05:46:17.581Z,7.76
2018-01-01T05:47:18.682Z,7.77
2018-01-01T05:48:17.636Z,7.76
2018-01-01T05:49:17.350Z,7.75
2018-01-01T05:50:19.111Z,7.74
2018-01-01T05:51:17.390Z,7.73
2018-01-01T05:52:18.941Z,7.72
2018-01-01T05:53:17.076Z,7.71
2018-01-01T05:54:17.375Z,7.69
2018-01-01T05:55:17.617Z,7.68
2018-01-01T05:56:19.156Z,7.66
2018-01-01T05:57:17.396Z,7.66
2018-01-01T05:58:19.084Z,7.64
2018-01-01T05:59:17.359Z,7.62
2018-01-01T06:00:17.530Z,7.6
2018-01-01T06:01:18.815Z,7.58
2018-01-01T06:02:18.951Z,7.57
2018-01-01T06:03:17.158Z,7.55
2018-01-01T06:04:17.360Z,7.53
2018-01-01T06:05:17.128Z,7.52
2018-01-01T06:06:17.419Z,7.52
2018-01-01T06:07:18.821Z,7.5
2018-01-01T06:08:16.138Z,7.48
2018-01-01T06:09:16.758Z,7.46
2018-01-01T06:10:16.991Z,7.45
2018-01-01T06:11:16.365Z,7.44
2018-01-01T06:12:16.699Z,7.41
2018-01-01T06:13:16.483Z,7.4
2018-01-01T06:14:16.892Z,7.38
2018-01-01T06:15:16.315Z,7.36
2018-01-01T06:16:16.645Z,7.35
2018-01-01T06:17:16.596Z,7.34
2018-01-01T06:18:16.653Z,7.35
2018-01-01T06:19:16.390Z,7.34
2018-01-01T06:20:16.258Z,7.34
2018-01-01T06:21:16.583Z,7.34
2018-01-01T06:22:16.943Z,7.33
2018-01-01T06:23:16.164Z,7.33
2018-01-01T06:24:16.318Z,7.32
2018-01-01T06:25:16.366Z,7.32
2018-01-01T06:26:16.291Z,7.32
2018-01-01T06:27:16.654Z,7.32
2018-01-01T06:28:17.096Z,7.29
2018-01-01T06:29:16.283Z,7.29
2018-01-01T06:30:16.314Z,7.28
2018-01-01T06:31:16.218Z,7.28
2018-01-01T06:32:16.444Z,7.25
2018-01-01T06:33:16.215Z,7.25
2018-01-01T06:34:16.865Z,7.24
2018-01-01T06:35:16.596Z,7.24
2018-01-01T06:36:16.360Z,7.22
2018-01-01T06:37:16.666Z,7.23
2018-01-01T06:38:16.699Z,7.22
2018-01-01T06:40:25.769Z,7.21
2018-01-01T06:41:16.771Z,7.2
2018-01-01T06:42:16.836Z,7.18
2018-01-01T06:43:16.808Z,7.15
2018-01-01T06:44:18.637Z,7.14
2018-01-01T06:45:18.428Z,7.12
2018-01-01T06:46:17.164Z,7.1
2018-01-01T06:47:17.106Z,7.09
2018-01-01T06:48:17.099Z,7.07
2018-01-01T06:49:17.219Z,7.06
2018-01-01T06:50:18.567Z,7.05
2018-01-01T06:51:18.477Z,7.02
2018-01-01T06:52:18.616Z,7.01
2018-01-01T06:53:18.722Z,6.98
2018-01-01T06:54:16.776Z,6.97
2018-01-01T06:55:16.720Z,6.94
2018-01-01T06:56:17.167Z,6.94
2018-01-01T06:57:18.784Z,6.93
2018-01-01T06:58:16.805Z,6.91
2018-01-01T06:59:16.686Z,6.88
2018-01-01T07:00:16.950Z,6.87
2018-01-01T07:01:17.226Z,6.86
2018-01-01T07:02:17.053Z,6.86
2018-01-01T07:03:17.090Z,6.85
2018-01-01T07:04:17.048Z,6.84
2018-01-01T07:05:16.778Z,6.83
2018-01-01T07:06:16.989Z,6.8
2018-01-01T07:07:18.637Z,6.79
2018-01-01T07:08:18.191Z,6.79
2018-01-01T07:09:17.057Z,6.79
2018-01-01T07:10:17.172Z,6.78
2018-01-01T07:11:17.179Z,6.77
2018-01-01T07:12:18.233Z,6.75
2018-01-01T07:13:17.247Z,6.73
2018-01-01T07:14:18.431Z,6.73
2018-01-01T07:15:18.324Z,6.73
2018-01-01T07:16:18.836Z,6.72
2018-01-01T07:17:16.665Z,6.72
2018-01-01T07:18:16.567Z,6.71
2018-01-01T07:19:17.222Z,6.68
2018-01-01T07:22:21.499Z,6.66
2018-01-01T07:23:16.596Z,6.64
2018-01-01T07:24:18.867Z,6.65
2018-01-01T07:25:16.834Z,6.65
2018-01-01T07:27:35.010Z,6.64
2018-01-01T07:28:16.949Z,6.64
2018-01-01T07:29:18.350Z,6.66
2018-01-01T07:30:18.435Z,6.67
2018-01-01T07:31:17.233Z,6.67
2018-01-01T07:32:17.274Z,6.67
2018-01-01T07:33:16.959Z,6.65
2018-01-01T07:34:17.075Z,6.65
2018-01-01T07:35:16.942Z,6.65
2018-01-01T07:36:16.749Z,6.63
2018-01-01T07:37:16.872Z,6.62
2018-01-01T07:38:16.845Z,6.62
2018-01-01T07:39:16.762Z,6.6
2018-01-01T07:40:16.589Z,6.58
2018-01-01T07:41:18.578Z,6.56
2018-01-01T07:42:18.468Z,6.55
2018-01-01T07:43:17.338Z,6.56
2018-01-01T07:44:17.025Z,6.57
2018-01-01T07:45:18.426Z,6.58
2018-01-01T07:46:18.750Z,6.58
2018-01-01T07:47:16.919Z,6.59
2018-01-01T07:48:16.793Z,6.57
2018-01-01T07:49:16.739Z,6.58
2018-01-01T07:50:17.051Z,6.57
2018-01-01T07:51:16.846Z,6.56
2018-01-01T07:52:16.635Z,6.55
2018-01-01T07:53:17.152Z,6.55
2018-01-01T07:54:16.907Z,6.54
2018-01-01T07:55:16.974Z,6.53
2018-01-01T07:56:18.456Z,6.52
2018-01-01T07:57:17.223Z,6.52
2018-01-01T07:58:16.913Z,6.52
2018-01-01T07:59:17.146Z,6.52
2018-01-01T08:00:17.112Z,6.5
2018-01-01T08:01:17.301Z,6.53
2018-01-01T08:02:16.908Z,6.52
2018-01-01T08:03:16.835Z,6.54
2018-01-01T08:04:16.875Z,6.55
2018-01-01T08:05:16.992Z,6.58
2018-01-01T08:06:17.067Z,6.61
2018-01-01T08:07:17.129Z,6.63
2018-01-01T08:08:17.131Z,6.65
2018-01-01T08:09:16.274Z,6.66
2018-01-01T08:10:16.475Z,6.68
2018-01-01T08:11:16.622Z,6.7
2018-01-01T08:12:16.622Z,6.7
2018-01-01T08:13:16.683Z,6.71
2018-01-01T08:14:16.658Z,6.71
2018-01-01T08:15:16.688Z,6.7
2018-01-01T08:16:16.464Z,6.71
2018-01-01T08:17:17.168Z,6.7
2018-01-01T08:18:17.217Z,6.69
2018-01-01T08:19:17.169Z,6.7
2018-01-01T08:20:17.201Z,6.67
2018-01-01T08:21:16.406Z,6.67
2018-01-01T08:22:16.560Z,6.66
2018-01-01T08:23:16.800Z,6.65
2018-01-01T08:24:16.805Z,6.64
2018-01-01T08:25:16.721Z,6.64
2018-01-01T08:26:16.976Z,6.64
2018-01-01T08:27:16.951Z,6.63
2018-01-01T08:28:16.660Z,6.61
2018-01-01T08:29:16.465Z,6.61
2018-01-01T08:30:16.471Z,6.62
2018-01-01T08:31:16.650Z,6.61
2018-01-01T08:32:16.775Z,6.61
2018-01-01T08:33:16.845Z,6.63
2018-01-01T08:34:16.794Z,6.62
2018-01-01T08:35:16.799Z,6.61
2018-01-01T08:36:16.824Z,6.61
2018-01-01T08:37:16.772Z,6.6
2018-01-01T08:38:16.522Z,6.59
2018-01-01T08:39:16.720Z,6.59
2018-01-01T08:40:18.554Z,6.58
2018-01-01T08:41:18.434Z,6.58
2018-01-01T08:42:17.238Z,6.57
2018-01-01T08:43:18.300Z,6.57
2018-01-01T08:44:17.302Z,6.57
2018-01-01T08:45:17.195Z,6.57
2018-01-01T08:46:17.335Z,6.57
2018-01-01T08:49:20.389Z,6.64
2018-01-01T08:50:17.633Z,6.66
2018-01-01T08:51:17.512Z,6.69
2018-01-01T08:52:17.455Z,6.7
2018-01-01T08:53:17.348Z,6.73
2018-01-01T08:54:17.340Z,6.75
2018-01-01T08:55:17.292Z,6.79
2018-01-01T08:57:16.907Z,6.84
2018-01-01T08:58:17.071Z,6.87
2018-01-01T08:59:17.237Z,6.9
2018-01-01T09:00:17.378Z,6.93
2018-01-01T09:01:16.861Z,6.95
2018-01-01T09:02:17.268Z,6.99
2018-01-01T09:03:17.439Z,7.03
2018-01-01T09:04:17.563Z,7.07
2018-01-01T09:05:16.898Z,7.11
2018-01-01T09:06:17.210Z,7.16
2018-01-01T09:07:17.712Z,7.2
2018-01-01T09:08:17.014Z,7.24
2018-01-01T09:09:17.509Z,7.27
2018-01-01T09:10:16.804Z,7.31
2018-01-01T09:11:17.392Z,7.34
2018-01-01T09:12:16.890Z,7.38
2018-01-01T09:13:17.234Z,7.41
2018-01-01T09:14:16.900Z,7.4
2018-01-01T09:15:17.087Z,7.4
2018-01-01T09:16:16.494Z,7.41
2018-01-01T09:17:16.715Z,7.42
2018-01-01T09:18:17.052Z,7.42
2018-01-01T09:19:17.484Z,7.43
2018-01-01T09:20:16.745Z,7.44
2018-01-01T09:21:16.848Z,7.46
2018-01-01T09:22:16.674Z,7.5
2018-01-01T09:23:17.018Z,7.53
2018-01-01T09:24:17.537Z,7.56
2018-01-01T09:25:16.923Z,7.58
2018-01-01T09:26:17.312Z,7.62
2018-01-01T09:27:17.351Z,7.65
2018-01-01T09:28:16.687Z,7.67
2018-01-01T09:29:16.853Z,7.69
2018-01-01T09:30:17.110Z,7.71
2018-01-01T09:31:16.995Z,7.72
2018-01-01T09:32:17.285Z,7.72
2018-01-01T09:33:17.463Z,7.72
2018-01-01T09:34:16.676Z,7.72
2018-01-01T09:35:16.928Z,7.71
2018-01-01T09:36:17.151Z,7.68
2018-01-01T09:37:16.659Z,7.65
2018-01-01T09:38:16.973Z,7.62
2018-01-01T09:39:17.306Z,7.59
2018-01-01T09:40:17.507Z,7.57
2018-01-01T09:41:16.673Z,7.55
2018-01-01T09:42:16.946Z,7.53
2018-01-01T09:43:17.332Z,7.52
2018-01-01T09:44:17.358Z,7.5
2018-01-01T09:45:16.545Z,7.51
2018-01-01T09:46:16.810Z,7.51
2018-01-01T09:47:17.101Z,7.49
2018-01-01T09:48:17.247Z,7.49
2018-01-01T09:49:16.540Z,7.49
2018-01-01T09:50:17.449Z,7.5
2018-01-01T09:51:17.153Z,7.52
2018-01-01T09:52:17.437Z,7.55
2018-01-01T09:53:17.070Z,7.58
2018-01-01T09:54:17.114Z,7.63
2018-01-01T09:55:16.618Z,7.69
2018-01-01T09:56:16.950Z,7.74
2018-01-01T09:57:17.262Z,7.79
2018-01-01T09:58:17.548Z,7.81
2018-01-01T09:59:16.916Z,7.82
2018-01-01T10:00:17.117Z,7.81
2018-01-01T10:01:17.538Z,7.79
2018-01-01T10:02:16.897Z,7.78
2018-01-01T10:03:17.094Z,7.79
2018-01-01T10:04:16.576Z,7.8
2018-01-01T10:05:17.018Z,7.8
2018-01-01T10:06:16.794Z,7.8
2018-01-01T10:07:17.305Z,7.81
2018-01-01T10:08:16.891Z,7.83
2018-01-01T10:09:17.265Z,7.87
2018-01-01T10:10:17.552Z,7.9
2018-01-01T10:11:17.950Z,7.94
2018-01-01T10:12:17.242Z,7.95
2018-01-01T10:13:17.436Z,7.96
2018-01-01T10:14:16.770Z,8
2018-01-01T10:15:16.961Z,8.02
2018-01-01T10:16:17.445Z,8.06
2018-01-01T10:17:16.949Z,8.11
2018-01-01T10:18:17.257Z,8.16
2018-01-01T10:19:17.544Z,8.22
2018-01-01T10:20:16.837Z,8.25
2018-01-01T10:21:17.267Z,8.3
2018-01-01T10:22:17.468Z,8.31
2018-01-01T10:23:17.600Z,8.34
2018-01-01T10:24:16.938Z,8.35
2018-01-01T10:25:17.352Z,8.34
2018-01-01T10:26:17.154Z,8.36
2018-01-01T10:27:17.527Z,8.37
2018-01-01T10:28:17.102Z,8.36
2018-01-01T10:29:18.712Z,8.36
2018-01-01T10:30:17.995Z,8.36
2018-01-01T10:31:17.147Z,8.35
2018-01-01T10:32:17.639Z,8.34
2018-01-01T10:33:17.134Z,8.33
2018-01-01T10:34:17.321Z,8.31
2018-01-01T10:35:16.956Z,8.29
2018-01-01T10:36:17.592Z,8.28
2018-01-01T10:37:17.314Z,8.27
2018-01-01T10:38:21.597Z,8.25
2018-01-01T10:39:17.578Z,8.24
2018-01-01T10:40:17.253Z,8.22
2018-01-01T10:41:17.856Z,8.2
2018-01-01T10:42:17.282Z,8.17
2018-01-01T10:43:16.866Z,8.17
2018-01-01T10:44:17.572Z,8.16
2018-01-01T10:45:16.724Z,8.15
2018-01-01T10:46:16.871Z,8.14
2018-01-01T10:47:16.786Z,8.15
2018-01-01T10:48:17.299Z,8.14
2018-01-01T10:49:17.308Z,8.15
2018-01-01T10:50:16.871Z,8.18
2018-01-01T10:51:16.919Z,8.23
2018-01-01T10:52:17.368Z,8.28
2018-01-01T10:53:17.724Z,8.3
2018-01-01T10:54:17.059Z,8.31
2018-01-01T10:55:17.224Z,8.34
2018-01-01T10:56:17.389Z,8.35
2018-01-01T10:57:17.569Z,8.36
2018-01-01T10:59:20.159Z,8.38
2018-01-01T11:00:17.180Z,8.37
2018-01-01T11:01:17.130Z,8.37
2018-01-01T11:02:17.131Z,8.36
2018-01-01T11:03:18.291Z,8.34
2018-01-01T11:04:17.638Z,8.33
2018-01-01T11:05:16.946Z,8.33
2018-01-01T11:06:16.878Z,8.31
2018-01-01T11:07:16.900Z,8.31
2018-01-01T11:08:17.180Z,8.33
2018-01-01T11:09:17.320Z,8.35
2018-01-01T11:10:17.378Z,8.36
2018-01-01T11:11:17.322Z,8.36
2018-01-01T11:12:16.450Z,8.35
2018-01-01T11:13:17.325Z,8.36
2018-01-01T11:16:24.189Z,8.42
2018-01-01T11:17:24.088Z,8.4
2018-01-01T11:18:24.058Z,8.41
2018-01-01T11:19:24.955Z,8.42
2018-01-01T11:20:24.282Z,8.39
2018-01-01T11:21:24.301Z,8.38
2018-01-01T11:22:24.362Z,8.38
2018-01-01T11:23:24.340Z,8.39
2018-01-01T11:24:24.418Z,8.39
2018-01-01T11:25:24.462Z,8.39
2018-01-01T11:26:24.756Z,8.38
2018-01-01T11:27:24.894Z,8.39
2018-01-01T11:28:24.017Z,8.39
2018-01-01T11:29:24.121Z,8.42
2018-01-01T11:30:24.043Z,8.44
2018-01-01T11:31:24.361Z,8.44
2018-01-01T11:32:24.603Z,8.44
2018-01-01T11:33:24.551Z,8.44
2018-01-01T11:34:24.889Z,8.44
2018-01-01T11:35:24.903Z,8.43
2018-01-01T11:36:24.229Z,8.45
2018-01-01T11:37:24.337Z,8.46
2018-01-01T11:38:24.359Z,8.46
2018-01-01T11:39:24.179Z,8.46
2018-01-01T11:40:24.367Z,8.45
2018-01-01T11:41:24.507Z,8.44
2018-01-01T11:42:24.573Z,8.42
2018-01-01T11:43:24.564Z,8.41
2018-01-01T11:44:24.640Z,8.41
2018-01-01T11:45:24.744Z,8.4
2018-01-01T11:46:24.253Z,8.42
2018-01-01T11:47:24.251Z,8.43
2018-01-01T11:48:24.459Z,8.44
2018-01-01T11:49:24.437Z,8.44
2018-01-01T11:50:24.569Z,8.45
2018-01-01T11:51:24.499Z,8.45
2018-01-01T11:52:24.742Z,8.44
2018-01-01T11:53:24.665Z,8.43
2018-01-01T11:54:24.798Z,8.44
2018-01-01T11:55:24.917Z,8.46
2018-01-01T11:56:24.936Z,8.49
2018-01-01T11:57:25.023Z,8.5
2018-01-01T11:58:25.150Z,8.53
2018-01-01T11:59:25.206Z,8.52
2018-01-01T12:00:24.287Z,8.54
2018-01-01T12:01:25.116Z,8.57
2018-01-01T12:02:25.204Z,8.6
2018-01-01T12:03:25.031Z,8.64
2018-01-01T12:04:24.839Z,8.7
2018-01-01T12:05:25.634Z,8.75
2018-01-01T12:06:24.854Z,8.82
2018-01-01T12:07:25.010Z,8.86
2018-01-01T12:08:24.936Z,8.93
2018-01-01T12:09:24.977Z,8.97
2018-01-01T12:10:25.088Z,8.99
2018-01-01T12:11:25.475Z,9.02
2018-01-01T12:12:24.708Z,9.04
2018-01-01T12:13:24.701Z,9.07
2018-01-01T12:14:24.693Z,9.07
2018-01-01T12:15:24.603Z,9.06
2018-01-01T12:16:24.703Z,9.08
2018-01-01T12:17:25.623Z,9.13
2018-01-01T12:18:24.664Z,9.17
2018-01-01T12:19:25.508Z,9.2
2018-01-01T12:20:25.612Z,9.22
2018-01-01T12:21:25.607Z,9.2
2018-01-01T12:22:25.614Z,9.2
2018-01-01T12:23:25.646Z,9.18
2018-01-01T12:24:24.724Z,9.19
2018-01-01T12:25:25.543Z,9.18
2018-01-01T12:26:25.641Z,9.17
2018-01-01T12:27:24.816Z,9.15
2018-01-01T12:28:24.709Z,9.12
2018-01-01T12:29:24.674Z,9.1
2018-01-01T12:30:25.679Z,9.09
2018-01-01T12:31:25.626Z,9.08
2018-01-01T12:32:25.464Z,9.07
2018-01-01T12:33:25.576Z,9.04
2018-01-01T12:34:25.698Z,9.02
2018-01-01T12:35:25.193Z,9.01
2018-01-01T12:36:25.295Z,8.99
2018-01-01T12:37:25.462Z,8.98
2018-01-01T12:38:25.530Z,8.96
2018-01-01T12:39:24.716Z,8.95
2018-01-01T12:40:24.838Z,8.93
2018-01-01T12:41:25.118Z,8.92
2018-01-01T12:42:25.176Z,8.9
2018-01-01T12:43:25.292Z,8.9
2018-01-01T12:44:25.261Z,8.9
2018-01-01T12:45:25.225Z,8.89
2018-01-01T12:46:25.483Z,8.89
2018-01-01T12:47:24.559Z,8.87
2018-01-01T12:48:24.590Z,8.87
2018-01-01T12:49:24.652Z,8.86
2018-01-01T12:50:24.683Z,8.86
2018-01-01T12:51:24.667Z,8.86
2018-01-01T12:52:24.829Z,8.87
2018-01-01T12:53:25.078Z,8.86
2018-01-01T12:54:24.844Z,8.87
2018-01-01T12:55:24.921Z,8.88
2018-01-01T12:56:24.828Z,8.9
2018-01-01T12:57:24.946Z,8.93
2018-01-01T12:58:25.017Z,8.95
2018-01-01T12:59:25.091Z,8.95
2018-01-01T13:00:24.971Z,8.97
2018-01-01T13:01:25.088Z,8.98
2018-01-01T13:02:24.935Z,8.99
2018-01-01T13:03:25.061Z,9.02
2018-01-01T13:04:24.895Z,9.03
2018-01-01T13:05:25.070Z,9.05
2018-01-01T13:06:25.165Z,9.07
2018-01-01T13:07:24.431Z,9.08
2018-01-01T13:08:24.438Z,9.09
2018-01-01T13:09:24.507Z,9.09
2018-01-01T13:10:26.393Z,9.09
2018-01-01T13:11:24.721Z,9.08
2018-01-01T13:12:24.409Z,9.08
2018-01-01T13:13:24.385Z,9.08
2018-01-01T13:14:24.884Z,9.1
2018-01-01T13:15:24.919Z,9.12
2018-01-01T13:16:24.950Z,9.13
2018-01-01T13:17:24.945Z,9.13
2018-01-01T13:18:25.534Z,9.14
2018-01-01T13:19:25.182Z,9.14
2018-01-01T13:20:24.945Z,9.14
2018-01-01T13:21:25.405Z,9.15
2018-01-01T13:22:25.162Z,9.14
2018-01-01T13:23:25.024Z,9.13
2018-01-01T13:24:26.569Z,9.12
2018-01-01T13:25:25.576Z,9.12
2018-01-01T13:26:25.264Z,9.12
2018-01-01T13:27:25.020Z,9.11
2018-01-01T13:28:26.457Z,9.11
2018-01-01T13:29:25.600Z,9.09
2018-01-01T13:30:25.383Z,9.07